createdAt,value
2022-11-26T00:01:20.893Z,101755.88
2022-11-26T00:03:49.632Z,101757.06
2022-11-26T00:06:26.808Z,101764.88
2022-11-26T00:08:55.916Z,101762.50
2022-11-26T00:11:23.681Z,101768.59
2022-11-26T00:13:51.465Z,101769.47
2022-11-26T00:16:19.925Z,101769.81
2022-11-26T00:18:47.761Z,101770.84
2022-11-26T00:21:19.144Z,101777.28
2022-11-26T00:23:47.032Z,101779.13
2022-11-26T00:26:19.159Z,101784.22
2022-11-26T00:28:52.005Z,101790.00
2022-11-26T00:31:20.200Z,101791.78
2022-11-26T00:33:48.114Z,101795.13
2022-11-26T00:36:20.050Z,101799.53
2022-11-26T00:38:50.741Z,101804.66
2022-11-26T00:41:22.600Z,101800.94
2022-11-26T00:43:50.699Z,101791.72
2022-11-26T00:46:21.237Z,101804.88
2022-11-26T00:48:49.234Z,101793.56
2022-11-26T00:51:19.301Z,101806.56
2022-11-26T00:53:48.922Z,101810.19
2022-11-26T00:56:20.768Z,101820.19
2022-11-26T00:58:50.364Z,101817.56
2022-11-26T01:01:21.419Z,101817.66
2022-11-26T01:03:49.484Z,101827.16
2022-11-26T01:06:21.101Z,101836.34
2022-11-26T01:08:49.089Z,101835.16
2022-11-26T01:11:20.383Z,101842.72
2022-11-26T01:13:49.823Z,101843.28
2022-11-26T01:16:21.466Z,101845.84
2022-11-26T01:18:50.790Z,101845.00
2022-11-26T01:21:19.699Z,101852.16
2022-11-26T01:23:47.746Z,101853.72
2022-11-26T01:26:17.601Z,101853.81
2022-11-26T01:28:47.344Z,101849.59
2022-11-26T01:31:16.965Z,101851.38
2022-11-26T01:33:45.451Z,101846.88
2022-11-26T01:36:26.967Z,101849.50
2022-11-26T01:38:55.849Z,101855.50
2022-11-26T01:41:45.521Z,101857.50
2022-11-26T01:44:20.051Z,101862.66
2022-11-26T01:46:48.796Z,101865.38
2022-11-26T01:49:19.401Z,101871.13
2022-11-26T01:51:49.936Z,101863.25
2022-11-26T01:54:18.753Z,101858.06
2022-11-26T01:56:50.967Z,101864.34
2022-11-26T01:59:24.597Z,101854.00
2022-11-26T02:01:53.597Z,101858.97
2022-11-26T02:04:25.749Z,101868.25
2022-11-26T02:06:55.624Z,101868.56
2022-11-26T02:09:25.958Z,101868.56
2022-11-26T02:11:53.750Z,101852.28
2022-11-26T02:14:26.425Z,101860.75
2022-11-26T02:17:03.120Z,101871.88
2022-11-26T02:20:15.468Z,101870.25
2022-11-26T02:23:16.736Z,101862.28
2022-11-26T02:26:08.865Z,101863.34
2022-11-26T02:28:56.344Z,101863.47
2022-11-26T02:31:34.571Z,101862.63
2022-11-26T02:34:11.672Z,101862.78
2022-11-26T02:36:52.412Z,101866.34
2022-11-26T02:39:23.053Z,101873.75
2022-11-26T02:41:52.676Z,101875.31
2022-11-26T02:44:23.481Z,101870.53
2022-11-26T02:46:58.869Z,101869.59
2022-11-26T02:49:28.381Z,101866.97
2022-11-26T02:52:00.737Z,101861.47
2022-11-26T02:54:30.545Z,101859.09
2022-11-26T02:57:00.689Z,101857.97
2022-11-26T02:59:29.276Z,101861.47
2022-11-26T03:02:01.867Z,101856.28
2022-11-26T03:04:34.442Z,101861.38
2022-11-26T03:07:06.132Z,101865.13
2022-11-26T03:09:41.440Z,101872.06
2022-11-26T03:12:09.791Z,101871.91
2022-11-26T03:14:37.904Z,101864.94
2022-11-26T03:17:07.278Z,101868.34
2022-11-26T03:19:35.097Z,101855.78
2022-11-26T03:22:03.072Z,101856.63
2022-11-26T03:24:31.385Z,101869.59
2022-11-26T03:26:59.546Z,101870.38
2022-11-26T03:29:27.508Z,101870.53
2022-11-26T03:31:55.429Z,101879.28
2022-11-26T03:34:24.577Z,101882.56
2022-11-26T03:36:52.612Z,101890.91
2022-11-26T03:39:20.392Z,101892.91
2022-11-26T03:41:48.147Z,101892.00
2022-11-26T03:44:15.927Z,101884.44
2022-11-26T03:46:43.846Z,101897.25
2022-11-26T03:49:11.773Z,101892.47
2022-11-26T03:51:40.865Z,101909.94
2022-11-26T03:54:08.654Z,101903.06
2022-11-26T03:56:36.384Z,101904.69
2022-11-26T03:59:04.129Z,101909.47
2022-11-26T04:01:31.902Z,101909.66
2022-11-26T04:03:59.910Z,101926.16
2022-11-26T04:06:27.645Z,101919.38
2022-11-26T04:08:56.718Z,101919.47
2022-11-26T04:11:24.513Z,101924.78
2022-11-26T04:13:52.298Z,101926.78
2022-11-26T04:16:20.637Z,101927.56
2022-11-26T04:18:48.461Z,101934.81
2022-11-26T04:21:16.251Z,101941.69
2022-11-26T04:23:44.069Z,101940.69
2022-11-26T04:26:13.187Z,101953.06
2022-11-26T04:28:41.135Z,101954.16
2022-11-26T04:31:08.870Z,101961.41
2022-11-26T04:33:36.690Z,101970.19
2022-11-26T04:36:04.824Z,101970.19
2022-11-26T04:38:32.622Z,101967.56
2022-11-26T04:41:00.416Z,101975.59
2022-11-26T04:43:29.605Z,101978.22
2022-11-26T04:45:57.419Z,101986.19
2022-11-26T04:48:25.301Z,101985.47
2022-11-26T04:50:53.009Z,101989.91
2022-11-26T04:53:22.089Z,101995.16
2022-11-26T04:55:50.461Z,101994.44
2022-11-26T04:58:18.612Z,101989.41
2022-11-26T05:00:51.068Z,101995.50
2022-11-26T05:03:19.234Z,102004.16
2022-11-26T05:05:47.706Z,102004.81
2022-11-26T05:08:15.771Z,102005.16
2022-11-26T05:10:43.578Z,102010.06
2022-11-26T05:13:11.616Z,102009.94
2022-11-26T05:15:39.342Z,102014.47
2022-11-26T05:18:08.604Z,102013.09
2022-11-26T05:20:36.299Z,102025.97
2022-11-26T05:23:04.099Z,102019.84
2022-11-26T05:25:31.804Z,102004.53
2022-11-26T05:27:59.598Z,102019.22
2022-11-26T05:30:27.347Z,102011.50
2022-11-26T05:32:55.142Z,102004.97
2022-11-26T05:35:24.208Z,102011.19
2022-11-26T05:37:51.933Z,102016.44
2022-11-26T05:40:21.090Z,102019.06
2022-11-26T05:42:48.864Z,102020.00
2022-11-26T05:45:16.844Z,102023.53
2022-11-26T05:47:44.586Z,102020.91
2022-11-26T05:50:13.064Z,102027.09
2022-11-26T05:52:42.381Z,102036.66
2022-11-26T05:55:11.494Z,102034.97
2022-11-26T05:57:39.356Z,102034.09
2022-11-26T06:00:08.655Z,102038.38
2022-11-26T06:02:39.614Z,102050.78
2022-11-26T06:05:08.390Z,102044.84
2022-11-26T06:07:39.332Z,102039.44
2022-11-26T06:10:11.889Z,102030.22
2022-11-26T06:12:39.675Z,102032.03
2022-11-26T06:15:11.096Z,102037.94
2022-11-26T06:17:41.980Z,102039.59
2022-11-26T06:20:10.544Z,102016.66
2022-11-26T06:22:39.134Z,102044.97
2022-11-26T06:25:09.109Z,102044.06
2022-11-26T06:27:38.780Z,102029.63
2022-11-26T06:30:08.890Z,102044.06
2022-11-26T06:32:36.697Z,102044.00
2022-11-26T06:35:04.993Z,102042.16
2022-11-26T06:37:33.195Z,102050.09
2022-11-26T06:40:01.545Z,102056.03
2022-11-26T06:42:29.602Z,102058.09
2022-11-26T06:45:00.157Z,101999.00
2022-11-26T06:47:28.055Z,102056.88
2022-11-26T06:49:55.778Z,102062.91
2022-11-26T06:52:26.512Z,102069.09
2022-11-26T06:54:54.260Z,102072.50
2022-11-26T06:57:21.995Z,102072.38
2022-11-26T06:59:49.707Z,102076.03
2022-11-26T07:02:18.836Z,102079.66
2022-11-26T07:04:48.919Z,102077.13
2022-11-26T07:07:16.826Z,102083.00
2022-11-26T07:09:44.513Z,102081.16
2022-11-26T07:12:12.337Z,102083.00
2022-11-26T07:14:40.889Z,102084.91
2022-11-26T07:17:08.897Z,102098.63
2022-11-26T07:19:38.046Z,102096.00
2022-11-26T07:22:05.770Z,102099.75
2022-11-26T07:24:33.485Z,102112.66
2022-11-26T07:27:01.194Z,102080.88
2022-11-26T07:29:29.034Z,102116.81
2022-11-26T07:31:56.881Z,102119.94
2022-11-26T07:34:24.675Z,102116.38
2022-11-26T07:36:57.832Z,102117.22
2022-11-26T07:39:26.131Z,102127.66
2022-11-26T07:41:53.834Z,102127.31
2022-11-26T07:44:21.675Z,102132.41
2022-11-26T07:46:49.495Z,102136.75
2022-11-26T07:49:17.949Z,102135.69
2022-11-26T07:51:45.890Z,102136.41
2022-11-26T07:54:15.014Z,102128.47
2022-11-26T07:56:42.802Z,102130.19
2022-11-26T07:59:11.862Z,102131.16
2022-11-26T08:01:39.686Z,102131.72
2022-11-26T08:04:08.329Z,102110.22
2022-11-26T08:06:36.652Z,102139.25
2022-11-26T08:09:05.472Z,102133.00
2022-11-26T08:11:34.845Z,102140.91
2022-11-26T08:14:04.852Z,102127.97
2022-11-26T08:16:33.948Z,102127.59
2022-11-26T08:19:04.217Z,102132.72
2022-11-26T08:21:32.105Z,102128.38
2022-11-26T08:24:00.289Z,102131.84
2022-11-26T08:26:36.165Z,102136.13
2022-11-26T08:29:08.183Z,102119.94
2022-11-26T08:31:44.886Z,102139.66
2022-11-26T08:34:15.136Z,102140.44
2022-11-26T08:36:43.025Z,102140.31
2022-11-26T08:39:17.344Z,102142.81
2022-11-26T08:41:51.744Z,102134.13
2022-11-26T08:44:22.182Z,102144.50
2022-11-26T08:46:53.053Z,102136.47
2022-11-26T08:49:20.745Z,102148.59
2022-11-26T08:51:48.554Z,102145.88
2022-11-26T08:54:16.258Z,102139.88
2022-11-26T08:56:44.117Z,102140.53
2022-11-26T08:59:11.807Z,102137.84
2022-11-26T09:01:41.187Z,102129.88
2022-11-26T09:04:08.982Z,102133.13
2022-11-26T09:06:37.759Z,102143.16
2022-11-26T09:09:17.213Z,102149.88
2022-11-26T09:11:48.160Z,102153.13
2022-11-26T09:14:17.445Z,102158.78
2022-11-26T09:16:46.635Z,102162.84
2022-11-26T09:19:15.751Z,102163.53
2022-11-26T09:21:43.973Z,102164.00
2022-11-26T09:24:12.236Z,102163.94
2022-11-26T09:26:40.082Z,102180.50
2022-11-26T09:29:07.926Z,102176.69
2022-11-26T09:31:35.654Z,102178.25
2022-11-26T09:34:04.820Z,102175.47
2022-11-26T09:36:32.605Z,102178.09
2022-11-26T09:39:00.917Z,102170.06
2022-11-26T09:41:39.231Z,102177.03
2022-11-26T09:44:23.205Z,102172.97
2022-11-26T09:47:12.051Z,102168.34
2022-11-26T09:49:49.013Z,102176.75
2022-11-26T09:52:19.644Z,102184.59
2022-11-26T09:54:50.877Z,102186.28
2022-11-26T09:57:24.617Z,102180.88
2022-11-26T09:59:54.950Z,102157.03
2022-11-26T10:02:25.295Z,102175.13
2022-11-26T10:04:54.675Z,102179.59
2022-11-26T10:07:38.986Z,102179.13
2022-11-26T10:10:12.893Z,102172.56
2022-11-26T10:13:18.032Z,102180.31
2022-11-26T10:15:54.200Z,102176.69
2022-11-26T10:18:32.132Z,102179.94
2022-11-26T10:21:11.536Z,102173.63
2022-11-26T10:23:45.487Z,102169.97
2022-11-26T10:26:17.102Z,102170.66
2022-11-26T10:28:47.573Z,102174.91
2022-11-26T10:31:21.683Z,102149.16
2022-11-26T10:33:58.238Z,102175.63
2022-11-26T10:36:34.719Z,102179.03
2022-11-26T10:39:02.731Z,102184.44
2022-11-26T10:41:35.175Z,102182.59
2022-11-26T10:44:36.889Z,102176.38
2022-11-26T10:47:24.093Z,102173.41
2022-11-26T10:49:53.409Z,102168.81
2022-11-26T10:52:25.818Z,102172.28
2022-11-26T10:55:21.937Z,102170.97
2022-11-26T10:57:53.103Z,102174.28
2022-11-26T11:00:33.826Z,102173.59
2022-11-26T11:03:03.045Z,102185.69
2022-11-26T11:05:31.354Z,102185.53
2022-11-26T11:08:00.554Z,102182.81
2022-11-26T11:10:28.406Z,102182.03
2022-11-26T11:13:04.917Z,102174.81
2022-11-26T11:15:35.506Z,102171.41
2022-11-26T11:18:06.291Z,102165.94
2022-11-26T11:20:37.002Z,102163.13
2022-11-26T11:23:18.312Z,102164.06
2022-11-26T11:25:48.608Z,102159.28
2022-11-26T11:28:20.623Z,102157.34
2022-11-26T11:30:58.601Z,102155.81
2022-11-26T11:33:28.116Z,102160.16
2022-11-26T11:36:16.340Z,102157.34
2022-11-26T11:38:50.336Z,102157.03
2022-11-26T11:41:25.517Z,102163.72
2022-11-26T11:43:59.724Z,102161.06
2022-11-26T11:46:48.031Z,102153.00
2022-11-26T11:49:26.758Z,102159.81
2022-11-26T11:52:09.637Z,102156.41
2022-11-26T11:54:48.879Z,102163.19
2022-11-26T11:57:25.598Z,102160.38
2022-11-26T12:00:13.221Z,102156.63
2022-11-26T12:02:59.587Z,102148.78
2022-11-26T12:05:43.477Z,102149.56
2022-11-26T12:08:28.784Z,102155.00
2022-11-26T12:11:13.224Z,102148.88
2022-11-26T12:13:47.799Z,102148.19
2022-11-26T12:16:18.246Z,102151.69
2022-11-26T12:18:49.872Z,102151.34
2022-11-26T12:21:26.405Z,102153.03
2022-11-26T12:23:59.002Z,102152.97
2022-11-26T12:26:31.946Z,102156.28
2022-11-26T12:29:03.563Z,102152.66
2022-11-26T12:31:37.508Z,102160.59
2022-11-26T12:34:12.548Z,102164.00
2022-11-26T12:36:46.444Z,102160.25
2022-11-26T12:39:20.850Z,102158.19
2022-11-26T12:41:56.203Z,102154.41
2022-11-26T12:44:31.441Z,102157.06
2022-11-26T12:47:09.267Z,102158.66
2022-11-26T12:49:48.217Z,102161.22
2022-11-26T12:52:30.442Z,102158.66
2022-11-26T12:55:04.777Z,102164.63
2022-11-26T12:57:39.653Z,102161.22
2022-11-26T13:00:12.882Z,102154.25
2022-11-26T13:02:43.448Z,102156.78
2022-11-26T13:05:18.087Z,102158.03
2022-11-26T13:08:02.468Z,102153.78
2022-11-26T13:10:40.517Z,102158.19
2022-11-26T13:13:21.022Z,102158.53
2022-11-26T13:16:01.474Z,102156.66
2022-11-26T13:18:32.665Z,102136.44
2022-11-26T13:21:15.682Z,102144.75
2022-11-26T13:24:00.949Z,102143.94
2022-11-26T13:26:44.234Z,102141.19
2022-11-26T13:29:35.624Z,102144.59
2022-11-26T13:32:26.925Z,102143.66
2022-11-26T13:35:10.020Z,102146.66
2022-11-26T13:37:50.616Z,102155.50
2022-11-26T13:40:54.772Z,102137.97
2022-11-26T13:44:01.849Z,102137.22
2022-11-26T13:46:34.334Z,102132.88
2022-11-26T13:49:08.585Z,102132.53
2022-11-26T13:51:43.652Z,102132.53
2022-11-26T13:54:15.283Z,102122.13
2022-11-26T13:56:45.565Z,102114.69
2022-11-26T13:59:22.720Z,102108.28
2022-11-26T14:01:54.884Z,102118.69
2022-11-26T14:04:53.592Z,102115.44
2022-11-26T14:07:21.844Z,102105.91
2022-11-26T14:09:52.410Z,102109.06
2022-11-26T14:12:21.861Z,102105.75
2022-11-26T14:14:50.769Z,102078.09
2022-11-26T14:17:22.641Z,102092.16
2022-11-26T14:20:04.785Z,102099.63
2022-11-26T14:22:34.438Z,102084.03
2022-11-26T14:25:04.556Z,102088.59
2022-11-26T14:27:34.421Z,102095.81
2022-11-26T14:30:21.315Z,102094.38
2022-11-26T14:33:04.021Z,102075.09
2022-11-26T14:35:34.935Z,102092.47
2022-11-26T14:38:05.446Z,102090.84
2022-11-26T14:40:34.562Z,102088.69
2022-11-26T14:43:23.900Z,102094.88
2022-11-26T14:46:04.380Z,102085.53
2022-11-26T14:48:36.564Z,102089.88
2022-11-26T14:51:09.177Z,102086.53
2022-11-26T14:53:41.553Z,102083.13
2022-11-26T14:56:11.183Z,102077.47
2022-11-26T14:58:43.104Z,102074.41
2022-11-26T15:01:20.676Z,102092.78
2022-11-26T15:03:57.988Z,102088.34
2022-11-26T15:06:28.175Z,102088.63
2022-11-26T15:09:15.055Z,102093.16
2022-11-26T15:11:48.774Z,102093.19
2022-11-26T15:14:21.689Z,102094.13
2022-11-26T15:16:56.356Z,102089.97
2022-11-26T15:19:26.813Z,102090.13
2022-11-26T15:21:54.837Z,102091.25
2022-11-26T15:24:22.864Z,102083.34
2022-11-26T15:26:50.755Z,102079.16
2022-11-26T15:29:30.923Z,102086.31
2022-11-26T15:31:59.459Z,102062.50
2022-11-26T15:34:32.264Z,102083.06
2022-11-26T15:37:00.324Z,102084.75
2022-11-26T15:39:30.657Z,102087.31
2022-11-26T15:42:05.873Z,102080.03
2022-11-26T15:44:42.357Z,102091.06
2022-11-26T15:47:23.208Z,102069.88
2022-11-26T15:49:56.352Z,102083.59
2022-11-26T15:52:27.243Z,102096.59
2022-11-26T15:55:16.894Z,102092.25
2022-11-26T15:57:45.217Z,102086.31
2022-11-26T16:00:22.731Z,102090.72
2022-11-26T16:02:52.079Z,102079.25
2022-11-26T16:05:30.549Z,102080.09
2022-11-26T16:07:59.823Z,102083.75
2022-11-26T16:10:31.415Z,102088.09
2022-11-26T16:13:19.499Z,102089.19
2022-11-26T16:15:55.307Z,102090.88
2022-11-26T16:18:26.404Z,102094.28
2022-11-26T16:21:05.552Z,102076.94
2022-11-26T16:23:33.784Z,102090.88
2022-11-26T16:26:17.486Z,102084.84
2022-11-26T16:28:46.219Z,102085.28
2022-11-26T16:31:14.430Z,102083.34
2022-11-26T16:33:43.044Z,102079.00
2022-11-26T16:36:22.678Z,102062.81
2022-11-26T16:38:51.397Z,102076.19
2022-11-26T16:41:21.024Z,102066.06
2022-11-26T16:43:49.386Z,102076.34
2022-11-26T16:46:19.353Z,102061.09
2022-11-26T16:48:48.392Z,102075.75
2022-11-26T16:51:18.141Z,102079.16
2022-11-26T16:53:45.904Z,102095.13
2022-11-26T16:56:21.036Z,102095.28
2022-11-26T16:58:49.311Z,102092.84
2022-11-26T17:01:17.087Z,102093.56
2022-11-26T17:03:44.971Z,102091.97
2022-11-26T17:06:16.536Z,102096.63
2022-11-26T17:08:49.685Z,102091.38
2022-11-26T17:11:18.688Z,102086.19
2022-11-26T17:13:46.517Z,102084.56
2022-11-26T17:16:16.640Z,102084.56
2022-11-26T17:18:44.572Z,102085.34
2022-11-26T17:21:12.379Z,102087.53
2022-11-26T17:23:40.153Z,102096.28
2022-11-26T17:26:17.746Z,102082.50
2022-11-26T17:28:45.509Z,102089.25
2022-11-26T17:31:13.426Z,102081.34
2022-11-26T17:33:41.426Z,102078.09
2022-11-26T17:36:17.423Z,102078.94
2022-11-26T17:38:46.180Z,102080.81
2022-11-26T17:41:16.194Z,102080.97
2022-11-26T17:43:44.344Z,102075.09
2022-11-26T17:46:18.239Z,102073.72
2022-11-26T17:48:46.637Z,102073.56
2022-11-26T17:51:15.268Z,102077.91
2022-11-26T17:53:44.978Z,102063.88
2022-11-26T17:56:22.500Z,102067.50
2022-11-26T17:58:50.959Z,102062.25
2022-11-26T18:01:18.933Z,102072.00
2022-11-26T18:03:47.265Z,102063.19
2022-11-26T18:06:17.077Z,102051.38
2022-11-26T18:08:45.889Z,102055.44
2022-11-26T18:11:15.004Z,102053.75
2022-11-26T18:13:45.261Z,102059.06
2022-11-26T18:16:13.273Z,102055.78
2022-11-26T18:18:41.051Z,102051.44
2022-11-26T18:21:08.867Z,102049.91
2022-11-26T18:23:36.731Z,102051.59
2022-11-26T18:26:04.646Z,102046.34
2022-11-26T18:28:32.531Z,102038.59
2022-11-26T18:31:01.883Z,102043.84
2022-11-26T18:33:29.832Z,102043.94
2022-11-26T18:35:57.623Z,102042.22
2022-11-26T18:38:29.005Z,102036.88
2022-11-26T18:41:02.211Z,102033.47
2022-11-26T18:43:30.239Z,102017.84
2022-11-26T18:45:58.235Z,102026.50
2022-11-26T18:48:27.378Z,102029.41
2022-11-26T18:50:58.965Z,102046.06
2022-11-26T18:53:27.938Z,102040.94
2022-11-26T18:55:56.558Z,102049.75
2022-11-26T18:58:25.087Z,102042.72
2022-11-26T19:00:58.452Z,102039.25
2022-11-26T19:03:28.462Z,102035.53
2022-11-26T19:05:56.688Z,102037.38
2022-11-26T19:08:24.633Z,102038.16
2022-11-26T19:10:52.514Z,102035.69
2022-11-26T19:13:20.237Z,102025.38
2022-11-26T19:15:48.660Z,102028.72
2022-11-26T19:18:16.828Z,102015.78
2022-11-26T19:20:50.158Z,102025.31
2022-11-26T19:23:24.133Z,102016.63
2022-11-26T19:25:51.987Z,102023.59
2022-11-26T19:28:19.884Z,102013.84
2022-11-26T19:30:58.823Z,102010.75
2022-11-26T19:33:26.741Z,102015.00
2022-11-26T19:35:56.097Z,102017.56
2022-11-26T19:38:23.949Z,102010.75
2022-11-26T19:40:56.770Z,102012.47
2022-11-26T19:43:25.342Z,102008.97
2022-11-26T19:45:53.494Z,102010.75
2022-11-26T19:48:23.972Z,102003.19
2022-11-26T19:50:56.474Z,102014.56
2022-11-26T19:53:24.967Z,102013.03
2022-11-26T19:55:57.964Z,102021.84
2022-11-26T19:58:26.006Z,102027.19
2022-11-26T20:00:54.696Z,102029.72
2022-11-26T20:03:23.302Z,102012.25
2022-11-26T20:05:51.693Z,102008.16
2022-11-26T20:08:21.539Z,102012.47
2022-11-26T20:10:50.136Z,102008.25
2022-11-26T20:13:18.310Z,102003.84
2022-11-26T20:15:47.392Z,102002.13
2022-11-26T20:18:16.248Z,102012.81
2022-11-26T20:20:44.043Z,102015.44
2022-11-26T20:23:12.076Z,102019.91
2022-11-26T20:25:41.177Z,102019.00
2022-11-26T20:28:14.491Z,102020.78
2022-11-26T20:30:42.383Z,102031.28
2022-11-26T20:33:10.274Z,102035.69
2022-11-26T20:35:40.614Z,102038.41
2022-11-26T20:38:08.526Z,102040.25
2022-11-26T20:40:36.448Z,102038.56
2022-11-26T20:43:05.615Z,102039.66
2022-11-26T20:45:33.360Z,102033.56
2022-11-26T20:48:01.231Z,102038.81
2022-11-26T20:50:28.944Z,102034.47
2022-11-26T20:52:56.773Z,102046.69
2022-11-26T20:55:25.152Z,102039.88
2022-11-26T20:57:53.349Z,102053.94
2022-11-26T21:00:27.381Z,102048.53
2022-11-26T21:02:55.675Z,102038.97
2022-11-26T21:05:28.814Z,102045.00
2022-11-26T21:07:56.771Z,102055.66
2022-11-26T21:10:26.344Z,102052.25
2022-11-26T21:12:54.098Z,102047.13
2022-11-26T21:15:23.596Z,102039.31
2022-11-26T21:17:51.737Z,102042.88
2022-11-26T21:20:19.868Z,102050.03
2022-11-26T21:22:47.616Z,102053.72
2022-11-26T21:25:15.496Z,102040.56
2022-11-26T21:27:43.333Z,102049.38
2022-11-26T21:30:12.205Z,102042.50
2022-11-26T21:32:41.288Z,102038.53
2022-11-26T21:35:10.339Z,102038.28
2022-11-26T21:37:38.150Z,102044.63
2022-11-26T21:40:06.501Z,102037.66
2022-11-26T21:42:36.613Z,102028.22
2022-11-26T21:45:05.194Z,102031.56
2022-11-26T21:47:32.877Z,102022.03
2022-11-26T21:50:04.605Z,102027.16
2022-11-26T21:52:32.452Z,102020.19
2022-11-26T21:55:03.608Z,102007.13
2022-11-26T21:57:31.930Z,102007.19
2022-11-26T21:59:59.706Z,102007.13
2022-11-26T22:02:27.625Z,101996.69
2022-11-26T22:04:55.409Z,101996.75
2022-11-26T22:07:24.820Z,101986.72
2022-11-26T22:09:52.653Z,101980.44
2022-11-26T22:12:20.366Z,101969.75
2022-11-26T22:14:48.135Z,101968.00
2022-11-26T22:17:17.281Z,101962.66
2022-11-26T22:19:45.089Z,101960.19
2022-11-26T22:22:12.925Z,101960.88
2022-11-26T22:24:42.250Z,101959.25
2022-11-26T22:27:09.995Z,101955.84
2022-11-26T22:29:38.238Z,101954.06
2022-11-26T22:32:07.162Z,101952.28
2022-11-26T22:34:34.903Z,101955.69
2022-11-26T22:37:02.726Z,101948.88
2022-11-26T22:39:31.766Z,101939.63
2022-11-26T22:42:01.781Z,101931.59
2022-11-26T22:44:29.573Z,101932.66
2022-11-26T22:46:57.311Z,101937.00
2022-11-26T22:49:25.253Z,101928.34
2022-11-26T22:51:53.044Z,101915.28
2022-11-26T22:54:21.311Z,101924.94
2022-11-26T22:56:48.993Z,101924.94
2022-11-26T22:59:18.079Z,101918.13
2022-11-26T23:01:45.936Z,101905.31
2022-11-26T23:04:13.916Z,101912.88
2022-11-26T23:06:42.040Z,101905.75
2022-11-26T23:09:10.585Z,101911.03
2022-11-26T23:11:41.018Z,101913.66
2022-11-26T23:14:09.711Z,101902.28
2022-11-26T23:16:40.954Z,101906.69
2022-11-26T23:19:09.409Z,101910.34
2022-11-26T23:21:40.683Z,101904.91
2022-11-26T23:24:09.283Z,101900.50
2022-11-26T23:26:39.450Z,101897.03
2022-11-26T23:29:08.471Z,101905.75
2022-11-26T23:31:39.520Z,101895.25
2022-11-26T23:34:07.785Z,101889.06
2022-11-26T23:36:36.652Z,101886.59
2022-11-26T23:39:06.855Z,101872.31
2022-11-26T23:41:35.044Z,101873.38
2022-11-26T23:44:03.481Z,101854.63
2022-11-26T23:46:35.309Z,101870.75
2022-11-26T23:49:05.173Z,101860.31
2022-11-26T23:51:33.706Z,101859.31
2022-11-26T23:54:01.442Z,101859.31
2022-11-26T23:56:31.743Z,101857.63
2022-11-26T23:59:01.551Z,101863.72
